Latest Coastal Weather Observations for Montague Island

IDN60701

Issued at 1:02 am EDT Saturday 21 January 2017 (issued every 10 minutes, with the page automatically refreshed every 10 minutes)

About coastal observations | Map of coastal stations | Coastal observations for NSW | Marine services | Other Formats
Station Details ID: 069017 Name: MONTAGUE ISLAND LIGHTHOUSE Lat: -36.25 Lon: 150.23 Height: 52.0 m
Data from the previous 72 hours. | See also: Recent months at Montague Island
Date/Time
EDT
Temp
°C
Wind Pressure Rain since
9am
mm
Weather Cloud Vis
km
Sea
Height
m
Swell
Dir  Spd
kts
Gust
kts
hPa Trend Height
m
Period
s
Dir
21/01:00am 19.7 SSW 13 16 1003.7 - 1.2 - - - - - - -
21/12:30am 20.0 SW 15 17 1003.0 - 1.2 - - - - - - -
21/12:00am 20.2 SSW 16 22 1002.7 - 1.2 - - - - - - -
 
Date/Time
EDT
Temp
°C
Wind Pressure Rain since
9am
mm
Weather Cloud Vis
km
Sea
Height
m
Swell
Dir  Spd
kts
Gust
kts
hPa Trend Height
m
Period
s
Dir
20/11:30pm 20.6 SSW 17 22 1002.5 - 1.2 - - - - - - -
20/11:00pm 21.1 SSW 16 22 1002.0 - 1.2 - - - - - - -
20/10:30pm 21.4 SW 18 21 1001.5 - 1.2 - - - - - - -
20/10:00pm 21.6 SW 21 27 1000.6 - 1.2 - - - - - - -
20/09:30pm 21.8 SW 24 29 999.6 - 1.2 - - - - - - -
20/09:20pm 21.9 SW 28 38 999.2 - 1.2 - - - - - - -
20/09:00pm 22.1 SW 30 39 997.4 - 1.2 - - - - - - -
20/08:30pm 22.6 SSW 27 37 996.7 - 1.2 - - - - - - -
20/08:24pm 22.6 SSW 26 37 996.1 - 1.2 - - - - - - -
20/08:00pm 23.5 SSW 23 31 995.3 - 1.2 - - - - - - -
20/07:30pm 23.1 S 21 26 994.7 - 1.2 - - - - - - -
20/07:00pm 22.6 S 19 23 993.8 - 1.2 - - - - - - -
20/06:30pm 22.4 S 16 21 993.0 - 1.2 - - - - - - -
20/06:00pm 22.8 S 17 22 992.5 - 1.2 - - - - - - -
20/05:30pm 23.0 SSE 17 21 992.2 - 1.2 - - - - - - -
20/05:00pm 22.9 SSE 17 21 991.7 - 1.2 - - - - - - -
20/04:30pm 22.1 S 18 23 991.6 - 1.2 - - - - - - -
20/04:00pm 22.8 S 19 23 990.6 - 0.8 - - - - - - -
20/03:30pm 25.9 SSW 16 21 989.4 - 0.2 - - - - - - -
20/03:15pm 27.5 SSW 11 21 989.3 - 0.2 - - - - - - -
20/03:00pm 28.5 N 5 8 988.6 - 0.2 - - - - - - -
20/02:30pm 25.6 NNE 12 15 988.5 - 0.2 - - - - - - -
20/02:00pm 24.7 NNE 16 20 988.6 - 0.2 - - - - - - -
20/01:30pm 24.5 NNE 17 22 988.6 - 0.2 - - - - - - -
20/01:00pm 24.9 NNE 16 21 989.2 - 0.2 - - - - - - -
20/12:30pm 23.7 NNE 19 23 989.7 - 0.2 - - - - - - -
20/12:00pm 22.5 NNE 23 27 989.5 - 0.2 - - - - - - -
20/11:30am 22.1 NNE 23 26 990.4 - 0.2 - - - - - - -
20/11:00am 21.7 NNE 20 24 992.2 - 0.2 - - - - - - -
20/10:30am 21.6 N 18 22 993.5 - 0.2 - - - - - - -
20/10:00am 21.3 N 16 21 994.6 - 0.2 - - - - - - -
20/09:30am 20.5 N 14 19 996.0 - 0.2 - - - - - - -
20/09:00am 21.1 N 15 20 996.6 - 0.0 - - - - - - -
20/08:30am 21.4 N 17 23 996.9 - 0.0 - - - - - - -
20/08:00am 21.3 N 21 26 997.2 - 0.0 - - - - - - -
20/07:30am 20.6 N 17 22 998.0 - 0.0 - - - - - - -
20/07:00am 21.3 N 17 23 998.9 - 0.0 - - - - - - -
20/06:30am 21.3 N 16 23 999.0 - 0.0 - - - - - - -
20/06:00am 21.3 N 17 24 999.2 - 0.0 - - - - - - -
20/05:30am 21.4 N 16 22 1000.1 - 0.0 - - - - - - -
20/05:00am 21.3 N 16 21 1001.0 - 0.0 - - - - - - -
20/04:30am 21.0 N 16 21 1001.5 - 0.0 - - - - - - -
20/04:00am 21.0 N 18 24 1002.4 - 0.0 - - - - - - -
20/03:30am 21.1 N 20 25 1002.7 - 0.0 - - - - - - -
20/03:00am 21.4 N 18 24 1002.9 - 0.0 - - - - - - -
20/02:30am 21.4 N 19 26 1004.1 - 0.0 - - - - - - -
20/02:00am 21.3 N 17 24 1004.8 - 0.0 - - - - - - -
20/01:30am 21.2 N 18 24 1005.3 - 0.0 - - - - - - -
20/01:00am 21.1 N 17 22 1006.4 - 0.0 - - - - - - -
20/12:30am 21.0 N 15 21 1006.9 - 0.0 - - - - - - -
20/12:00am 21.0 N 14 18 1007.6 - 0.0 - - - - - - -
 
Date/Time
EDT
Temp
°C
Wind Pressure Rain since
9am
mm
Weather Cloud Vis
km
Sea
Height
m
Swell
Dir  Spd
kts
Gust
kts
hPa Trend Height
m
Period
s
Dir
19/11:30pm 21.1 N 14 18 1008.2 - 0.0 - - - - - - -
19/11:00pm 21.1 N 14 18 1008.6 - 0.0 - - - - - - -
19/10:30pm 21.2 N 12 17 1008.9 - 0.0 - - - - - - -
19/10:00pm 21.5 N 13 17 1009.3 - 0.0 - - - - - - -
19/09:30pm 21.1 N 14 20 1009.5 - 0.0 - - - - - - -
19/09:00pm 21.3 N 13 18 1009.6 - 0.0 - - - - - - -
19/08:30pm 20.7 NNE 14 17 1009.9 - 0.0 - - - - - - -
19/08:00pm 21.0 NNE 13 17 1010.0 - 0.0 - - - - - - -
19/07:30pm 21.2 NNE 11 13 1010.2 - 0.0 - - - - - - -
19/07:00pm 20.7 NNE 13 16 1010.4 - 0.0 - - - - - - -
19/06:30pm 21.0 NNE 10 13 1010.8 - 0.0 - - - - - - -
19/06:00pm 21.0 NNE 10 13 1011.1 - 0.0 - - - - - - -
19/05:30pm 20.9 NNE 9 11 1011.3 - 0.0 - - - - - - -
19/05:00pm 20.9 NNE 9 13 1011.7 - 0.0 - - - - - - -
19/04:30pm 21.1 NNE 9 11 1012.1 - 0.0 - - - - - - -
19/04:00pm 20.8 NNE 9 12 1012.5 - 0.0 - - - - - - -
19/03:30pm 21.3 NNE 9 11 1012.8 - 0.0 - - - - - - -
19/03:00pm 21.7 NNE 9 11 1013.1 - 0.0 - - - - - - -
19/02:30pm 21.7 NNE 7 9 1013.3 - 0.0 - - - - - - -
19/02:00pm 21.4 N 6 7 1013.6 - 0.0 - - - - - - -
19/01:30pm 21.1 NW 5 7 1013.8 - 0.0 - - - - - - -
19/01:00pm 20.8 WNW 3 6 1014.2 - 0.0 - - - - - - -
19/12:30pm 20.0 W 4 7 1014.5 - 0.0 - - - - - - -
19/12:00pm 20.2 W 6 8 1014.8 - 0.0 - - - - - - -
19/11:30am 20.1 SW 5 7 1014.9 - 0.0 - - - - - - -
19/11:00am 19.3 SSW 5 7 1015.2 - 0.0 - - - - - - -
19/10:30am 19.2 S 4 7 1015.3 - 0.0 - - - - - - -
19/10:00am 19.6 SSW 6 8 1015.2 - 0.0 - - - - - - -
19/09:30am 19.2 SSW 6 8 1015.4 - 0.0 - - - - - - -
19/09:00am 19.3 SSW 7 9 1015.6 - 0.0 - - - - - - -
19/08:30am 18.8 SW 6 9 1015.7 - 0.0 - - - - - - -
19/08:00am 18.3 SSW 7 10 1015.6 - 0.0 - - - - - - -
19/07:30am 17.9 SSW 7 9 1015.6 - 0.0 - - - - - - -
19/07:00am 17.7 SW 6 9 1015.2 - 0.0 - - - - - - -
19/06:30am 17.6 SW 7 9 1015.0 - 0.0 - - - - - - -
19/06:00am 17.4 SW 7 9 1014.9 - 0.0 - - - - - - -
19/05:30am 17.3 SW 7 9 1014.8 - 0.0 - - - - - - -
19/05:00am 17.1 SW 7 9 1014.7 - 0.0 - - - - - - -
19/04:30am 17.1 SW 8 10 1014.7 - 0.0 - - - - - - -
19/04:00am 17.1 WSW 9 11 1014.7 - 0.0 - - - - - - -
19/03:30am 17.3 SW 10 13 1014.9 - 0.0 - - - - - - -
19/03:00am 17.4 SW 12 16 1015.0 - 0.0 - - - - - - -
19/02:30am 17.9 SW 12 16 1015.4 - 0.0 - - - - - - -
19/02:00am 18.0 SSW 13 17 1015.7 - 0.0 - - - - - - -
19/01:30am 18.2 SSW 14 18 1016.0 - 0.0 - - - - - - -
19/01:00am 18.2 S 16 20 1015.8 - 0.0 - - - - - - -
19/12:30am 18.3 S 16 21 1015.9 - 0.0 - - - - - - -
19/12:00am 18.4 S 16 21 1015.7 - 0.0 - - - - - - -
 
Date/Time
EDT
Temp
°C
Wind Pressure Rain since
9am
mm
Weather Cloud Vis
km
Sea
Height
m
Swell
Dir  Spd
kts
Gust
kts
hPa Trend Height
m
Period
s
Dir
18/11:30pm 18.4 S 17 21 1015.6 - 0.0 - - - - - - -
18/11:00pm 18.7 S 18 23 1015.4 - 0.0 - - - - - - -
18/10:30pm 18.9 SSE 18 22 1015.2 - 0.0 - - - - - - -
18/10:00pm 19.2 SSE 19 23 1014.5 - 0.0 - - - - - - -
18/09:30pm 19.8 SSE 19 25 1013.9 - 0.0 - - - - - - -
18/09:00pm 19.7 SSE 20 25 1013.2 - 0.0 - - - - - - -
18/08:30pm 19.7 SSE 19 24 1012.7 - 0.0 - - - - - - -
18/08:00pm 20.1 SSE 20 24 1011.9 - 0.0 - - - - - - -
18/07:30pm 20.4 SSE 21 26 1011.0 - 0.0 - - - - - - -
18/07:00pm 20.5 SSE 21 25 1010.2 - 0.0 - - - - - - -
18/06:30pm 21.6 S 19 25 1009.8 - 0.0 - - - - - - -
18/06:00pm 21.3 S 21 25 1009.3 - 0.0 - - - - - - -
18/05:30pm 21.8 S 21 28 1008.9 - 0.0 - - - - - - -
18/05:00pm 21.4 S 19 25 1009.1 - 0.0 - - - - - - -
18/04:30pm 21.7 S 20 26 1008.7 - 0.0 - - - - - - -
18/04:00pm 21.1 S 20 25 1008.3 - 0.0 - - - - - - -
18/03:30pm 21.1 S 21 25 1007.9 - 0.0 - - - - - - -
18/03:00pm 21.0 S 22 28 1007.5 - 0.0 - - - - - - -
18/02:30pm 20.8 S 21 25 1007.7 - 0.0 - - - - - - -
18/02:00pm 21.1 S 20 26 1007.3 - 0.0 - - - - - - -
18/01:30pm 21.6 S 21 26 1007.3 - 0.0 - - - - - - -
18/01:00pm 22.2 S 19 24 1007.3 - 0.0 - - - - - - -
18/12:30pm 23.6 SSE 18 22 1007.0 - 0.0 - - - - - - -
18/12:00pm 25.3 S 15 20 1007.1 - 0.0 - - - - - - -
18/11:30am 24.6 SSE 18 21 1006.9 - 0.0 - - - - - - -
18/11:00am 26.3 SE 13 16 1006.5 - 0.0 - - - - - - -
18/10:30am 26.8 SE 10 12 1006.2 - 0.0 - - - - - - -
18/10:00am 26.8 SE 8 9 1005.3 - 0.0 - - - - - - -
18/09:30am 26.2 SSE 7 10 1005.6 - 0.0 - - - - - - -
18/09:00am 26.1 SSE 9 11 1005.4 - 0.0 - - - - - - -
18/08:30am 26.2 S 10 13 1005.5 - 0.0 - - - - - - -
18/08:00am 25.7 S 11 13 1005.7 - 0.0 - - - - - - -
18/07:30am 24.9 S 13 16 1005.6 - 0.0 - - - - - - -
18/07:00am 24.4 S 15 18 1005.1 - 0.0 - - - - - - -
18/06:30am 23.9 SSW 18 22 1004.9 - 0.0 - - - - - - -
18/06:00am 23.8 S 20 25 1004.1 - 0.0 - - - - - - -
18/05:30am 23.4 SSW 16 23 1003.5 - 0.0 - - - - - - -
18/05:00am 23.1 SSW 14 17 1003.1 - 0.0 - - - - - - -
18/04:30am 23.3 SSW 16 21 1002.7 - 0.0 - - - - - - -
18/04:00am 23.5 SW 10 17 1002.3 - 0.0 - - - - - - -
18/03:30am 23.6 SW 7 8 1001.8 - 0.0 - - - - - - -
18/03:00am 23.9 SW 7 9 1002.1 - 0.0 - - - - - - -
18/02:30am 23.9 SW 9 11 1002.9 - 0.0 - - - - - - -
18/02:00am 24.1 SW 8 10 1003.4 - 0.0 - - - - - - -
18/01:30am 23.7 SW 8 10 1003.8 - 0.0 - - - - - - -

Other Formats:

Comma delimited format used in spreadsheet applications
http://www.bom.gov.au/fwo/IDN60701/IDN60701.94939.axf

JavaScript Object Notation format (JSON) in row-major order
http://www.bom.gov.au/fwo/IDN60701/IDN60701.94939.json